createdAt,value
2023-09-29T00:00:00.477Z,7.3
2023-09-29T00:01:05.395Z,6.8
2023-09-29T00:02:10.458Z,7.4
2023-09-29T00:03:30.848Z,7.1
2023-09-29T00:04:35.643Z,7.3
2023-09-29T00:05:40.577Z,7.8
2023-09-29T00:06:48.321Z,7.8
2023-09-29T00:07:53.265Z,7.5
2023-09-29T00:09:11.063Z,7.7
2023-09-29T00:10:16.193Z,8.1
2023-09-29T00:11:21.201Z,7.3
2023-09-29T00:12:27.437Z,7.8
2023-09-29T00:13:32.396Z,7.5
2023-09-29T00:14:50.009Z,7.1
2023-09-29T00:15:55.099Z,7.2
2023-09-29T00:17:00.042Z,7.4
2023-09-29T00:18:06.061Z,7.2
2023-09-29T00:19:13.836Z,7.5
2023-09-29T00:20:42.420Z,7.5
2023-09-29T00:21:47.355Z,7
2023-09-29T00:22:52.438Z,7.4
2023-09-29T00:23:58.432Z,7.2
2023-09-29T00:25:03.391Z,6.8
2023-09-29T00:26:16.312Z,6.8
2023-09-29T00:27:21.297Z,7.2
2023-09-29T00:28:27.385Z,7
2023-09-29T00:29:32.318Z,7.2
2023-09-29T00:30:37.238Z,7.1
2023-09-29T00:31:56.741Z,6.9
2023-09-29T00:33:01.880Z,7.1
2023-09-29T00:34:07.248Z,7.5
2023-09-29T00:35:12.197Z,7.7
2023-09-29T00:36:17.252Z,7.1
2023-09-29T00:37:37.819Z,7.1
2023-09-29T00:38:42.862Z,7.5
2023-09-29T00:39:47.683Z,6.6
2023-09-29T00:40:52.598Z,7.4
2023-09-29T00:41:57.644Z,6.9
2023-09-29T00:43:04.658Z,7.3
2023-09-29T00:44:10.710Z,6.5
2023-09-29T00:45:15.770Z,7.1
2023-09-29T00:46:20.785Z,7.2
2023-09-29T00:47:25.711Z,6.3
2023-09-29T00:48:35.372Z,7.4
2023-09-29T00:49:43.120Z,6.8
2023-09-29T00:50:48.149Z,6.6
2023-09-29T00:51:53.140Z,6.5
2023-09-29T00:52:59.100Z,6.6
2023-09-29T00:54:06.628Z,6.4
2023-09-29T00:55:11.503Z,6.7
2023-09-29T00:56:16.415Z,6.8
2023-09-29T00:57:21.443Z,6.9
2023-09-29T00:58:26.441Z,7.2
2023-09-29T00:59:42.109Z,6.6
2023-09-29T01:00:47.227Z,7
2023-09-29T01:01:51.985Z,6.9
2023-09-29T01:02:56.913Z,6.8
2023-09-29T01:04:04.936Z,7
2023-09-29T01:05:16.437Z,6.5
2023-09-29T01:06:21.510Z,7.2
2023-09-29T01:07:26.432Z,6.5
2023-09-29T01:08:31.340Z,6.6
2023-09-29T01:09:36.432Z,7.3
2023-09-29T01:10:51.142Z,7.5
2023-09-29T01:11:56.125Z,6.9
2023-09-29T01:13:01.085Z,7.1
2023-09-29T01:14:06.097Z,7.5
2023-09-29T01:15:11.359Z,6.9
2023-09-29T01:16:33.893Z,7.3
2023-09-29T01:17:38.832Z,7.2
2023-09-29T01:18:43.753Z,6.9
2023-09-29T01:19:48.936Z,6.7
2023-09-29T01:20:53.894Z,7
2023-09-29T01:22:00.676Z,6.5
2023-09-29T01:23:05.788Z,6.6
2023-09-29T01:24:10.766Z,6.6
2023-09-29T01:25:15.813Z,6.8
2023-09-29T01:26:20.817Z,7
2023-09-29T01:28:21.958Z,7
2023-09-29T01:29:26.927Z,6.9
2023-09-29T01:30:31.870Z,6.9
2023-09-29T01:31:36.860Z,6.6
2023-09-29T01:32:41.966Z,7
2023-09-29T01:33:48.604Z,6.9
2023-09-29T01:34:53.575Z,7.1
2023-09-29T01:35:58.582Z,7.4
2023-09-29T01:37:03.464Z,6.9
2023-09-29T01:38:08.443Z,7.1
2023-09-29T01:39:20.438Z,7.2
2023-09-29T01:40:25.384Z,7.1
2023-09-29T01:41:30.373Z,6.8
2023-09-29T01:42:35.273Z,6.3
2023-09-29T01:43:40.117Z,6.6
2023-09-29T01:45:09.236Z,6.6
2023-09-29T01:46:14.441Z,6.7
2023-09-29T01:47:19.517Z,6.8
2023-09-29T01:48:24.519Z,6.8
2023-09-29T01:49:29.450Z,6.5
2023-09-29T01:50:40.587Z,6.8
2023-09-29T01:51:45.549Z,6.6
2023-09-29T01:52:50.465Z,7.1
2023-09-29T01:53:55.505Z,6.9
2023-09-29T01:55:00.451Z,7.3
2023-09-29T01:56:07.758Z,7.2
2023-09-29T01:57:12.760Z,6.7
2023-09-29T01:58:17.848Z,6.9
2023-09-29T01:59:22.971Z,7
2023-09-29T02:00:28.156Z,6.8
2023-09-29T02:01:39.425Z,6.5
2023-09-29T02:02:44.509Z,6.4
2023-09-29T02:03:49.606Z,6.4
2023-09-29T02:04:54.440Z,6.4
2023-09-29T02:05:59.597Z,6.4
2023-09-29T02:07:18.548Z,6.7
2023-09-29T02:08:23.560Z,5.6
2023-09-29T02:09:28.536Z,5.7
2023-09-29T02:10:33.523Z,6
2023-09-29T02:11:38.676Z,5.9
2023-09-29T02:12:46.525Z,6.3
2023-09-29T02:13:59.011Z,6
2023-09-29T02:15:03.884Z,6
2023-09-29T02:16:09.135Z,6.4
2023-09-29T02:17:17.088Z,5.9
2023-09-29T02:18:22.189Z,6.5
2023-09-29T02:19:27.000Z,6.2
2023-09-29T02:20:32.085Z,5.9
2023-09-29T02:21:36.869Z,6.1
2023-09-29T02:22:41.844Z,5.7
2023-09-29T02:23:47.019Z,6
2023-09-29T02:24:51.985Z,5.8
2023-09-29T02:25:56.943Z,5.9
2023-09-29T02:27:01.961Z,5.7
2023-09-29T02:28:11.734Z,5.7
2023-09-29T02:29:16.650Z,5.5
2023-09-29T02:30:21.661Z,5.8
2023-09-29T02:31:26.649Z,5.5
2023-09-29T02:32:31.600Z,5.6
2023-09-29T02:33:36.572Z,5.8
2023-09-29T02:34:41.360Z,5.3
2023-09-29T02:35:46.327Z,5.5
2023-09-29T02:36:51.363Z,5.4
2023-09-29T02:37:56.501Z,5.4
2023-09-29T02:39:01.465Z,6.4
2023-09-29T02:40:08.913Z,5.5
2023-09-29T02:41:15.298Z,5.4
2023-09-29T02:42:21.134Z,5.7
2023-09-29T02:43:26.111Z,5.9
2023-09-29T02:44:31.178Z,6.3
2023-09-29T02:45:37.232Z,6
2023-09-29T02:46:47.718Z,6
2023-09-29T02:47:52.863Z,5.5
2023-09-29T02:48:57.996Z,6
2023-09-29T02:50:02.914Z,5.6
2023-09-29T02:51:08.096Z,6
2023-09-29T02:52:58.672Z,6
2023-09-29T02:54:03.685Z,5.1
2023-09-29T02:55:08.895Z,6.2
2023-09-29T02:56:15.177Z,5.8
2023-09-29T02:57:20.241Z,5.6
2023-09-29T02:58:39.765Z,6.2
2023-09-29T02:59:45.929Z,5.5
2023-09-29T03:00:50.978Z,6.2
2023-09-29T03:01:56.078Z,5.8
2023-09-29T03:03:01.289Z,5.9
2023-09-29T03:04:08.641Z,6.3
2023-09-29T03:05:13.525Z,6
2023-09-29T03:06:18.568Z,6.1
2023-09-29T03:07:23.588Z,6.1
2023-09-29T03:08:28.618Z,6.2
2023-09-29T03:09:52.528Z,6
2023-09-29T03:10:57.579Z,5.8
2023-09-29T03:12:02.605Z,6
2023-09-29T03:13:07.702Z,5.9
2023-09-29T03:14:12.577Z,5.7
2023-09-29T03:15:44.963Z,5.7
2023-09-29T03:16:50.149Z,5.6
2023-09-29T03:17:57.698Z,5.5
2023-09-29T03:19:01.264Z,5.8
2023-09-29T03:20:06.256Z,5.8
2023-09-29T03:21:11.565Z,5.8
2023-09-29T03:22:16.715Z,6.1
2023-09-29T03:23:21.726Z,5.7
2023-09-29T03:24:29.286Z,5.3
2023-09-29T03:25:32.781Z,5.9
2023-09-29T03:26:47.974Z,5.5
2023-09-29T03:27:53.003Z,5.9
2023-09-29T03:28:58.075Z,5.6
2023-09-29T03:30:03.072Z,5.7
2023-09-29T03:31:08.247Z,6.4
2023-09-29T03:32:31.420Z,6.1
2023-09-29T03:33:36.530Z,6.2
2023-09-29T03:34:41.396Z,6.1
2023-09-29T03:35:46.480Z,6
2023-09-29T03:36:51.691Z,6.1
2023-09-29T03:37:56.616Z,6.1
2023-09-29T03:39:01.516Z,5.8
2023-09-29T03:40:06.537Z,6.1
2023-09-29T03:41:11.652Z,5.9
2023-09-29T03:42:16.626Z,5.8
2023-09-29T03:43:31.031Z,6.2
2023-09-29T03:44:36.057Z,6.3
2023-09-29T03:45:41.119Z,6
2023-09-29T03:46:46.025Z,5.5
2023-09-29T03:47:51.212Z,5.7
2023-09-29T03:48:56.222Z,6
2023-09-29T03:50:01.217Z,5.7
2023-09-29T03:51:06.259Z,5.9
2023-09-29T03:52:11.226Z,5.8
2023-09-29T03:53:16.140Z,6
2023-09-29T03:54:22.204Z,5.9
2023-09-29T03:55:27.144Z,5.6
2023-09-29T03:56:33.307Z,6
2023-09-29T03:57:38.343Z,6
2023-09-29T03:58:43.451Z,6.2
2023-09-29T03:59:48.436Z,6
2023-09-29T04:00:53.584Z,5.4
2023-09-29T04:01:59.684Z,6.2
2023-09-29T04:03:04.827Z,6.1
2023-09-29T04:04:09.771Z,5.8
2023-09-29T04:05:14.521Z,5.7
2023-09-29T04:06:19.751Z,6.3
2023-09-29T04:07:24.536Z,6.1
2023-09-29T04:08:29.501Z,5.7
2023-09-29T04:09:34.555Z,6
2023-09-29T04:10:51.667Z,6
2023-09-29T04:11:59.424Z,5.9
2023-09-29T04:13:04.455Z,5.6
2023-09-29T04:14:14.845Z,6.3
2023-09-29T04:15:14.411Z,5.8
2023-09-29T04:16:24.489Z,6.3
2023-09-29T04:17:29.581Z,6.1
2023-09-29T04:18:34.590Z,6.7
2023-09-29T04:19:39.549Z,6.5
2023-09-29T04:20:44.461Z,6.2
2023-09-29T04:21:54.496Z,6.7
2023-09-29T04:22:59.498Z,6.9
2023-09-29T04:24:04.624Z,6.7
2023-09-29T04:25:09.634Z,6.9
2023-09-29T04:26:14.619Z,6.9
2023-09-29T04:27:22.555Z,7
2023-09-29T04:28:27.572Z,6.6
2023-09-29T04:29:32.623Z,6.8
2023-09-29T04:30:38.924Z,6.5
2023-09-29T04:31:43.982Z,6.7
2023-09-29T04:32:54.028Z,7
2023-09-29T04:33:59.003Z,6.7
2023-09-29T04:35:04.974Z,7
2023-09-29T04:36:10.068Z,6.9
2023-09-29T04:37:15.136Z,6.7
2023-09-29T04:38:20.073Z,6.3
2023-09-29T04:39:25.114Z,6.9
2023-09-29T04:40:30.101Z,6.8
2023-09-29T04:41:36.590Z,6.5
2023-09-29T04:42:40.073Z,6.4
2023-09-29T04:44:00.801Z,6.7
2023-09-29T04:45:05.999Z,6.8
2023-09-29T04:46:11.115Z,6.9
2023-09-29T04:47:16.125Z,6.9
2023-09-29T04:48:21.040Z,6.7
2023-09-29T04:49:33.429Z,6.6
2023-09-29T04:50:38.419Z,6.8
2023-09-29T04:51:43.337Z,7.1
2023-09-29T04:52:48.422Z,6.4
2023-09-29T04:53:53.509Z,6.8
2023-09-29T04:55:11.148Z,7
2023-09-29T04:56:16.181Z,6.8
2023-09-29T04:57:21.393Z,6.5
2023-09-29T04:58:26.356Z,6.7
2023-09-29T04:59:31.406Z,6.6
2023-09-29T05:00:48.712Z,7.1
2023-09-29T05:01:53.685Z,6.1
2023-09-29T05:02:58.774Z,6.5
2023-09-29T05:04:03.767Z,7
2023-09-29T05:05:08.735Z,7
2023-09-29T05:06:42.113Z,7
2023-09-29T05:07:47.143Z,7
2023-09-29T05:08:52.178Z,7.1
2023-09-29T05:09:57.174Z,6.3
2023-09-29T05:11:02.215Z,6.5
2023-09-29T05:12:22.797Z,6.6
2023-09-29T05:13:27.866Z,6.7
2023-09-29T05:14:36.852Z,6.8
2023-09-29T05:15:43.048Z,7
2023-09-29T05:16:48.061Z,7.2
2023-09-29T05:18:21.357Z,7.2
2023-09-29T05:19:26.182Z,6.8
2023-09-29T05:20:31.211Z,7.1
2023-09-29T05:21:36.122Z,6.8
2023-09-29T05:22:42.364Z,7.2
2023-09-29T05:23:54.952Z,6.9
2023-09-29T05:25:00.205Z,7.3
2023-09-29T05:26:05.242Z,7.3
2023-09-29T05:27:11.860Z,7.3
2023-09-29T05:28:15.324Z,6.9
2023-09-29T05:29:25.123Z,6.7
2023-09-29T05:30:30.089Z,7.1
2023-09-29T05:31:35.049Z,6.4
2023-09-29T05:32:40.344Z,7
2023-09-29T05:33:45.307Z,6.8
2023-09-29T05:34:50.256Z,6.5
2023-09-29T05:35:55.340Z,6.6
2023-09-29T05:37:00.301Z,6.7
2023-09-29T05:38:14.764Z,6.2
2023-09-29T05:39:19.960Z,6.7
2023-09-29T05:40:24.912Z,6.4
2023-09-29T05:41:29.912Z,6.2
2023-09-29T05:42:49.574Z,6.7
2023-09-29T05:43:55.775Z,6.9
2023-09-29T05:45:00.884Z,6.6
2023-09-29T05:46:05.770Z,6.7
2023-09-29T05:47:10.753Z,6.2
2023-09-29T05:48:15.799Z,6.3
2023-09-29T05:49:29.324Z,6.1
2023-09-29T05:50:35.208Z,6.5
2023-09-29T05:51:43.116Z,6.3
2023-09-29T05:52:56.081Z,6.4
2023-09-29T05:53:54.885Z,6.6
2023-09-29T05:54:59.701Z,6.1
2023-09-29T05:56:04.697Z,6
2023-09-29T05:57:09.708Z,6.1
2023-09-29T05:58:14.608Z,6.4
2023-09-29T05:59:19.560Z,6.3
2023-09-29T06:00:24.421Z,6.2
2023-09-29T06:01:29.637Z,6.1
2023-09-29T06:02:34.655Z,6.9
2023-09-29T06:03:39.758Z,5.9
2023-09-29T06:04:44.613Z,6.1
2023-09-29T06:05:49.511Z,6
2023-09-29T06:06:54.859Z,6.4
2023-09-29T06:07:59.753Z,6.7
2023-09-29T06:09:06.681Z,6.7
2023-09-29T06:10:11.591Z,6.2
2023-09-29T06:11:17.723Z,6.5
2023-09-29T06:12:22.746Z,6
2023-09-29T06:13:27.754Z,6.1
2023-09-29T06:14:33.682Z,6.1
2023-09-29T06:15:38.830Z,5.9
2023-09-29T06:16:43.904Z,6.1
2023-09-29T06:17:48.999Z,6.3
2023-09-29T06:18:53.867Z,5.8
2023-09-29T06:20:00.607Z,6.7
2023-09-29T06:21:05.578Z,6.8
2023-09-29T06:22:10.419Z,7.1
2023-09-29T06:23:15.400Z,7.6
2023-09-29T06:24:20.443Z,7.2
2023-09-29T06:25:25.040Z,6.3
2023-09-29T06:26:29.978Z,6.8
2023-09-29T06:27:36.713Z,7.1
2023-09-29T06:28:47.639Z,6.3
2023-09-29T06:29:54.836Z,6.4
2023-09-29T06:31:00.772Z,6.4
2023-09-29T06:32:06.761Z,6.5
2023-09-29T06:33:13.872Z,6
2023-09-29T06:34:21.529Z,6.1
2023-09-29T06:35:26.735Z,6
2023-09-29T06:36:33.563Z,6.3
2023-09-29T06:37:38.590Z,6.3
2023-09-29T06:38:43.682Z,6.2
2023-09-29T06:39:48.803Z,6.5
2023-09-29T06:40:53.798Z,6.6
2023-09-29T06:42:10.140Z,6.4
2023-09-29T06:43:15.015Z,6.2
2023-09-29T06:44:20.023Z,6.3
2023-09-29T06:45:28.958Z,6.7
2023-09-29T06:46:30.088Z,6.8
2023-09-29T06:47:44.621Z,6.8
2023-09-29T06:48:50.453Z,7.6
2023-09-29T06:49:55.406Z,7.8
2023-09-29T06:51:01.300Z,7.5
2023-09-29T06:52:05.389Z,7.5
2023-09-29T06:53:22.173Z,7.1
2023-09-29T06:54:27.183Z,7.7
2023-09-29T06:55:32.188Z,7.9
2023-09-29T06:56:41.582Z,7.7
2023-09-29T06:57:46.702Z,8.2
2023-09-29T06:58:51.612Z,8
2023-09-29T06:59:56.617Z,7.9
2023-09-29T07:01:02.632Z,8.2
2023-09-29T07:02:06.670Z,8.3
2023-09-29T07:03:11.676Z,8.2
2023-09-29T07:04:16.530Z,8.1
2023-09-29T07:05:21.699Z,8.4
2023-09-29T07:06:26.504Z,7.9
2023-09-29T07:07:34.673Z,7.7
2023-09-29T07:08:39.596Z,8.2
2023-09-29T07:09:44.310Z,8
2023-09-29T07:10:50.325Z,8
2023-09-29T07:11:55.345Z,8.1
2023-09-29T07:13:00.284Z,8
2023-09-29T07:14:05.179Z,8.3
2023-09-29T07:15:10.158Z,8.3
2023-09-29T07:16:15.282Z,7.6
2023-09-29T07:17:20.072Z,8.1
2023-09-29T07:18:27.707Z,7.4
2023-09-29T07:19:42.148Z,7.7
2023-09-29T07:20:37.748Z,7.3
2023-09-29T07:21:45.528Z,7.7
2023-09-29T07:22:50.547Z,7.6
2023-09-29T07:23:56.625Z,7.2
2023-09-29T07:25:01.495Z,7.5
2023-09-29T07:26:06.635Z,7.6
2023-09-29T07:27:11.707Z,7.3
2023-09-29T07:28:16.534Z,7.3
2023-09-29T07:29:23.631Z,7
2023-09-29T07:30:28.447Z,7.3
2023-09-29T07:31:33.432Z,7.9
2023-09-29T07:32:41.144Z,6.9
2023-09-29T07:33:46.203Z,7.2
2023-09-29T07:34:51.691Z,7.3
2023-09-29T07:35:56.704Z,7.6
2023-09-29T07:37:01.614Z,7.7
2023-09-29T07:38:06.392Z,7.5
2023-09-29T07:39:11.803Z,7.8
2023-09-29T07:40:19.341Z,7.8
2023-09-29T07:41:25.182Z,7
2023-09-29T07:42:29.946Z,7.4
2023-09-29T07:43:36.077Z,7.4
2023-09-29T07:44:41.080Z,7.5
2023-09-29T07:45:48.206Z,7.3
2023-09-29T07:46:50.896Z,6.8
2023-09-29T07:47:55.850Z,7.3
2023-09-29T07:49:01.085Z,7.7
2023-09-29T07:50:05.516Z,7.5
2023-09-29T07:51:10.515Z,7.2
2023-09-29T07:52:15.331Z,7.4
2023-09-29T07:53:20.220Z,7.2
2023-09-29T07:54:25.442Z,7.2
2023-09-29T07:55:30.242Z,7.5
2023-09-29T07:56:36.699Z,7.2
2023-09-29T07:57:41.872Z,7.1
2023-09-29T07:58:46.742Z,6.8
2023-09-29T07:59:51.720Z,6.9
2023-09-29T08:00:56.611Z,6.7
2023-09-29T08:02:01.513Z,6.8
2023-09-29T08:03:06.448Z,7.1
2023-09-29T08:04:11.477Z,7.3
2023-09-29T08:05:16.454Z,7.6
2023-09-29T08:06:21.438Z,7
2023-09-29T08:07:26.335Z,7
2023-09-29T08:08:31.186Z,7.2
2023-09-29T08:09:36.212Z,6.9
2023-09-29T08:10:41.082Z,6.7
2023-09-29T08:11:46.093Z,7.3
2023-09-29T08:12:50.950Z,6.4
2023-09-29T08:14:01.866Z,7.2
2023-09-29T08:15:07.867Z,7.1
2023-09-29T08:16:13.005Z,7
2023-09-29T08:17:18.039Z,6.6
2023-09-29T08:18:23.215Z,6.4
2023-09-29T08:19:28.101Z,6.2
2023-09-29T08:20:32.991Z,6.6
2023-09-29T08:21:37.965Z,6.4
2023-09-29T08:22:43.075Z,5.9
2023-09-29T08:23:47.788Z,6.2
2023-09-29T08:24:52.587Z,6.1
2023-09-29T08:25:57.508Z,6.2
2023-09-29T08:27:02.555Z,6.2
2023-09-29T08:28:07.448Z,6.1
2023-09-29T08:29:15.159Z,6.3
2023-09-29T08:30:17.753Z,6.6
2023-09-29T08:31:22.835Z,6.2
2023-09-29T08:32:27.714Z,6.6
2023-09-29T08:33:44.052Z,6
2023-09-29T08:34:37.513Z,6.8
2023-09-29T08:35:42.295Z,6.8
2023-09-29T08:36:47.537Z,6.2
2023-09-29T08:37:52.427Z,6.7
2023-09-29T08:38:57.390Z,6.6
2023-09-29T08:40:02.329Z,6.9
2023-09-29T08:41:07.707Z,6.5
2023-09-29T08:42:16.671Z,7
2023-09-29T08:43:26.831Z,7
2023-09-29T08:44:31.798Z,6.1
2023-09-29T08:45:36.675Z,6.2
2023-09-29T08:46:41.539Z,6.5
2023-09-29T08:47:46.538Z,6.2
2023-09-29T08:48:51.473Z,6.3
2023-09-29T08:49:56.290Z,6.3
2023-09-29T08:51:01.384Z,6.1
2023-09-29T08:52:06.604Z,6.8
2023-09-29T08:53:11.876Z,6.1
2023-09-29T08:54:16.742Z,6.3
2023-09-29T08:55:21.598Z,6.6
2023-09-29T08:56:26.605Z,6.1
2023-09-29T08:57:41.126Z,6.2
2023-09-29T08:58:49.265Z,5.7
2023-09-29T08:59:54.111Z,6.5
2023-09-29T09:00:58.876Z,6.3
2023-09-29T09:02:03.879Z,6
2023-09-29T09:03:08.889Z,6.3
2023-09-29T09:04:13.700Z,6.3
2023-09-29T09:05:18.668Z,6.4
2023-09-29T09:06:23.747Z,6.1
2023-09-29T09:07:28.841Z,6.6
2023-09-29T09:08:35.653Z,6.1
2023-09-29T09:09:40.487Z,5.8
2023-09-29T09:10:52.811Z,6.2
2023-09-29T09:12:00.640Z,6.2
2023-09-29T09:13:05.438Z,6.1
2023-09-29T09:14:11.687Z,5.8
2023-09-29T09:15:16.541Z,6
2023-09-29T09:16:21.375Z,5.9
2023-09-29T09:17:26.336Z,6.3
2023-09-29T09:18:31.446Z,6.2
2023-09-29T09:19:39.595Z,6.1
2023-09-29T09:20:47.479Z,6.4
2023-09-29T09:21:55.339Z,6.4
2023-09-29T09:23:00.231Z,6
2023-09-29T09:24:05.166Z,6.3
2023-09-29T09:25:19.887Z,6.4
2023-09-29T09:26:24.700Z,5.9
2023-09-29T09:27:29.596Z,6.1
2023-09-29T09:28:42.076Z,6.3
2023-09-29T09:29:46.973Z,6
2023-09-29T09:30:52.003Z,5.9
2023-09-29T09:31:57.239Z,5.9
2023-09-29T09:33:02.193Z,6.7
2023-09-29T09:34:09.664Z,5.9
2023-09-29T09:35:14.491Z,6
2023-09-29T09:36:29.200Z,6.5
2023-09-29T09:37:34.056Z,6
2023-09-29T09:38:38.928Z,5.7
2023-09-29T09:39:46.696Z,5.9
2023-09-29T09:40:51.424Z,5.4
2023-09-29T09:41:56.413Z,6.1
2023-09-29T09:43:01.284Z,6
2023-09-29T09:44:11.041Z,5.9
2023-09-29T09:45:15.931Z,6.1
2023-09-29T09:46:20.822Z,6
2023-09-29T09:47:25.668Z,5.4
2023-09-29T09:48:30.662Z,5.9
2023-09-29T09:49:45.315Z,5.6
2023-09-29T09:50:50.146Z,5.6
2023-09-29T09:51:55.123Z,5.8
2023-09-29T09:53:00.038Z,5.8
2023-09-29T09:54:04.992Z,5.6
2023-09-29T09:55:09.878Z,5.9
2023-09-29T09:56:14.792Z,5.8
2023-09-29T09:57:19.774Z,5.5
2023-09-29T09:58:27.572Z,5.8
2023-09-29T09:59:32.680Z,5.2
2023-09-29T10:00:37.581Z,5.1
2023-09-29T10:01:42.628Z,5.4
2023-09-29T10:02:57.684Z,4.7
2023-09-29T10:04:02.576Z,5
2023-09-29T10:05:07.574Z,5.2
2023-09-29T10:06:12.641Z,4.9
2023-09-29T10:07:17.517Z,5.6
2023-09-29T10:08:22.451Z,5.2
2023-09-29T10:09:27.372Z,5.2
2023-09-29T10:10:40.610Z,5.4
2023-09-29T10:11:45.475Z,5.2
2023-09-29T10:12:50.292Z,4.8
2023-09-29T10:13:58.097Z,5
2023-09-29T10:15:05.695Z,5.3
2023-09-29T10:16:24.275Z,5.5
2023-09-29T10:17:29.340Z,5.1
2023-09-29T10:18:42.196Z,5.5
2023-09-29T10:19:47.058Z,5.2
2023-09-29T10:20:52.139Z,5.3
2023-09-29T10:21:59.582Z,5.3
2023-09-29T10:23:04.513Z,5.4
2023-09-29T10:24:11.958Z,4.9
2023-09-29T10:25:26.727Z,4.7
2023-09-29T10:26:31.694Z,5.3
2023-09-29T10:27:46.397Z,5.1
2023-09-29T10:28:51.489Z,5
2023-09-29T10:30:04.563Z,4.7
2023-09-29T10:31:09.761Z,5.3
2023-09-29T10:32:17.716Z,5.2
2023-09-29T10:33:22.713Z,4.7
2023-09-29T10:34:28.682Z,4.9
2023-09-29T10:35:33.613Z,5.4
2023-09-29T10:36:38.694Z,5.1
2023-09-29T10:37:43.694Z,4.8
2023-09-29T10:38:49.829Z,5
2023-09-29T10:40:13.550Z,5
2023-09-29T10:41:32.066Z,5.4
2023-09-29T10:42:28.626Z,5
2023-09-29T10:43:33.713Z,5.2
2023-09-29T10:44:38.620Z,4.9
2023-09-29T10:45:54.397Z,5.2
2023-09-29T10:46:59.480Z,4.6
2023-09-29T10:48:04.587Z,5.2
2023-09-29T10:49:12.223Z,5
2023-09-29T10:50:17.128Z,4.8
2023-09-29T10:51:22.654Z,5
2023-09-29T10:52:27.711Z,4.7
2023-09-29T10:53:33.404Z,4.7
2023-09-29T10:54:41.936Z,5.3
2023-09-29T10:55:46.736Z,5
2023-09-29T10:56:53.788Z,5
2023-09-29T10:57:58.728Z,4.6
2023-09-29T10:59:03.745Z,4.7
2023-09-29T11:00:08.691Z,4.9
2023-09-29T11:01:13.927Z,5
2023-09-29T11:02:26.908Z,4.7
2023-09-29T11:03:31.851Z,5.2
2023-09-29T11:04:36.708Z,5.4
2023-09-29T11:05:41.826Z,4.9
2023-09-29T11:06:51.775Z,4.9
2023-09-29T11:08:01.503Z,5.4
2023-09-29T11:09:06.501Z,4.9
2023-09-29T11:10:11.392Z,5
2023-09-29T11:11:17.842Z,4.8
2023-09-29T11:12:22.864Z,4.6
2023-09-29T11:13:41.043Z,4.7
2023-09-29T11:14:46.059Z,4.3
2023-09-29T11:15:50.909Z,4.2
2023-09-29T11:16:55.875Z,4.5
2023-09-29T11:18:01.060Z,4.2
2023-09-29T11:19:06.727Z,4.2
2023-09-29T11:20:14.469Z,4.2
2023-09-29T11:21:24.411Z,3.9
2023-09-29T11:22:34.391Z,4.3
2023-09-29T11:23:39.451Z,4
2023-09-29T11:24:51.615Z,4.2
2023-09-29T11:25:56.468Z,4.3
2023-09-29T11:27:04.256Z,4.2
2023-09-29T11:28:09.377Z,4.1
2023-09-29T11:29:17.276Z,4
2023-09-29T11:30:27.216Z,4
2023-09-29T11:31:32.010Z,4.2
2023-09-29T11:32:38.701Z,3.9
2023-09-29T11:33:46.974Z,4.3
2023-09-29T11:34:51.870Z,4.2
2023-09-29T11:36:06.089Z,4.4
2023-09-29T11:37:01.670Z,4.2
2023-09-29T11:38:06.500Z,4.2
2023-09-29T11:39:15.105Z,4.3
2023-09-29T11:40:19.953Z,3.9
2023-09-29T11:41:26.478Z,4.1
2023-09-29T11:42:31.419Z,4.2
2023-09-29T11:43:36.404Z,3.8
2023-09-29T11:44:42.731Z,3.8
2023-09-29T11:45:47.745Z,4.3
2023-09-29T11:46:52.769Z,4.1
2023-09-29T11:47:57.752Z,4.4
2023-09-29T11:49:02.698Z,4.1
2023-09-29T11:50:08.656Z,4.1
2023-09-29T11:51:13.669Z,4.3
2023-09-29T11:52:18.678Z,4.3
2023-09-29T11:53:23.715Z,4.8
2023-09-29T11:54:28.670Z,4.1
2023-09-29T11:55:43.128Z,4.6
2023-09-29T11:56:48.164Z,4.1
2023-09-29T11:57:53.238Z,3.9
2023-09-29T11:58:59.129Z,4.4
2023-09-29T12:00:04.167Z,3.8
2023-09-29T12:01:09.940Z,4.2
2023-09-29T12:02:14.696Z,4.1
2023-09-29T12:03:19.955Z,4.1
2023-09-29T12:04:25.006Z,4.3
2023-09-29T12:05:29.991Z,4.3
2023-09-29T12:06:34.980Z,3.8
2023-09-29T12:07:40.060Z,4.2
2023-09-29T12:08:45.013Z,4.1
2023-09-29T12:09:49.893Z,4
2023-09-29T12:10:55.787Z,4.2
2023-09-29T12:12:02.545Z,4
2023-09-29T12:13:05.823Z,4
2023-09-29T12:14:10.676Z,4.3
2023-09-29T12:15:15.910Z,4
2023-09-29T12:16:20.787Z,4.5
2023-09-29T12:17:25.830Z,4.2
2023-09-29T12:18:31.014Z,4.2
2023-09-29T12:19:36.177Z,4.3
2023-09-29T12:20:41.284Z,4
2023-09-29T12:21:46.140Z,4.1
2023-09-29T12:22:50.965Z,4
2023-09-29T12:23:56.058Z,4.5
2023-09-29T12:25:00.891Z,4.1
2023-09-29T12:26:05.676Z,4.5
2023-09-29T12:27:10.503Z,4.2
2023-09-29T12:28:15.639Z,3.8
2023-09-29T12:29:20.557Z,4.2
2023-09-29T12:30:25.945Z,4.2
2023-09-29T12:31:30.969Z,4.2
2023-09-29T12:32:35.897Z,3.8
2023-09-29T12:33:43.592Z,3.9
2023-09-29T12:34:48.727Z,3.9
2023-09-29T12:35:53.769Z,4.1
2023-09-29T12:37:00.323Z,3.9
2023-09-29T12:38:05.298Z,4
2023-09-29T12:39:10.481Z,3.9
2023-09-29T12:40:15.363Z,4
2023-09-29T12:41:20.379Z,4.3
2023-09-29T12:42:25.271Z,4
2023-09-29T12:43:30.127Z,4
2023-09-29T12:44:35.112Z,3.9
2023-09-29T12:45:45.540Z,4.3
2023-09-29T12:46:50.398Z,4.3
2023-09-29T12:47:55.417Z,3.7
2023-09-29T12:49:02.921Z,4.5
2023-09-29T12:50:07.847Z,4.5
2023-09-29T12:51:13.018Z,4.1
2023-09-29T12:52:17.697Z,3.9
2023-09-29T12:53:22.801Z,4.1
2023-09-29T12:54:27.780Z,4
2023-09-29T12:55:32.609Z,3.8
2023-09-29T12:56:52.099Z,4.2
2023-09-29T12:57:47.062Z,4.3
2023-09-29T12:58:52.081Z,3.8
2023-09-29T12:59:57.028Z,4.1
2023-09-29T13:01:01.848Z,3.8
2023-09-29T13:02:06.759Z,4
2023-09-29T13:03:11.907Z,4.1
2023-09-29T13:04:16.735Z,3.9
2023-09-29T13:05:21.601Z,4.1
2023-09-29T13:06:28.686Z,4.2
2023-09-29T13:07:46.191Z,4.1
2023-09-29T13:08:51.246Z,4.3
2023-09-29T13:09:57.343Z,4.1
2023-09-29T13:11:02.248Z,4.1
2023-09-29T13:12:10.881Z,4.1
2023-09-29T13:13:15.656Z,4.3
2023-09-29T13:14:20.783Z,4.8
2023-09-29T13:15:26.117Z,4.2
2023-09-29T13:16:31.085Z,4.1
2023-09-29T13:17:35.943Z,4.3
2023-09-29T13:18:41.909Z,4
2023-09-29T13:19:46.789Z,4.1
2023-09-29T13:20:52.798Z,4
2023-09-29T13:21:59.370Z,4.2
2023-09-29T13:23:04.433Z,4.2
2023-09-29T13:24:13.907Z,4.3
2023-09-29T13:25:19.931Z,4.2
2023-09-29T13:26:24.885Z,4.3
2023-09-29T13:27:30.517Z,3.9
2023-09-29T13:28:39.359Z,4.4
2023-09-29T13:29:44.688Z,4
2023-09-29T13:30:54.559Z,4.6
2023-09-29T13:31:56.048Z,4.5
2023-09-29T13:33:01.172Z,4.2
2023-09-29T13:34:06.038Z,4.4
2023-09-29T13:35:29.099Z,4.1
2023-09-29T13:36:32.927Z,4.5
2023-09-29T13:37:38.329Z,4.5
2023-09-29T13:38:43.393Z,5
2023-09-29T13:39:48.405Z,4.8
2023-09-29T13:40:55.765Z,4.7
2023-09-29T13:42:00.689Z,4.7
2023-09-29T13:43:05.618Z,4.7
2023-09-29T13:44:10.384Z,4.5
2023-09-29T13:45:15.181Z,4.8
2023-09-29T13:46:20.740Z,4.6
2023-09-29T13:47:25.621Z,4.6
2023-09-29T13:48:30.556Z,4.7
2023-09-29T13:49:35.770Z,4.4
2023-09-29T13:50:41.245Z,4.5
2023-09-29T13:51:49.794Z,4.8
2023-09-29T13:52:54.723Z,4.5
2023-09-29T13:54:00.339Z,4.3
2023-09-29T13:55:05.133Z,4.6
2023-09-29T13:56:11.587Z,4.4
2023-09-29T13:57:35.538Z,4.5
2023-09-29T13:58:40.472Z,4.1
2023-09-29T13:59:45.359Z,4.6
2023-09-29T14:00:50.398Z,4.3
2023-09-29T14:01:55.442Z,4.6
2023-09-29T14:03:02.940Z,4.3
2023-09-29T14:04:08.492Z,4.7
2023-09-29T14:05:13.783Z,4.6
2023-09-29T14:06:18.825Z,4.6
2023-09-29T14:07:23.846Z,4.5
2023-09-29T14:08:30.253Z,4.7
2023-09-29T14:09:35.244Z,5.6
2023-09-29T14:10:40.127Z,5.2
2023-09-29T14:11:45.100Z,5.2
2023-09-29T14:12:49.991Z,4.9
2023-09-29T14:13:55.025Z,4.8
2023-09-29T14:14:59.770Z,4.6
2023-09-29T14:16:04.748Z,4.4
2023-09-29T14:17:15.572Z,4.2
2023-09-29T14:18:19.910Z,4.4
2023-09-29T14:19:24.878Z,4.3
2023-09-29T14:20:29.979Z,4.3
2023-09-29T14:21:35.033Z,4.4
2023-09-29T14:22:44.754Z,4.4
2023-09-29T14:23:49.758Z,3.8
2023-09-29T14:24:54.772Z,4.1
2023-09-29T14:25:59.548Z,4.3
2023-09-29T14:27:05.012Z,4.5
2023-09-29T14:28:11.655Z,4.3
2023-09-29T14:29:16.660Z,4.5
2023-09-29T14:30:21.651Z,4.6
2023-09-29T14:31:26.560Z,5.1
2023-09-29T14:32:31.911Z,5.1
2023-09-29T14:33:39.661Z,4.8
2023-09-29T14:34:45.602Z,4.6
2023-09-29T14:35:50.518Z,4.3
2023-09-29T14:36:55.396Z,6.7
2023-09-29T14:38:00.222Z,6.9
2023-09-29T14:39:05.302Z,5.1
2023-09-29T14:40:10.222Z,5.5
2023-09-29T14:41:15.233Z,4.7
2023-09-29T14:42:20.142Z,4.4
2023-09-29T14:43:26.418Z,4.7
2023-09-29T14:44:31.620Z,4.4
2023-09-29T14:45:36.587Z,4.3
2023-09-29T14:46:41.607Z,4.4
2023-09-29T14:47:46.738Z,4.4
2023-09-29T14:48:51.593Z,4.3
2023-09-29T14:49:56.468Z,4.2
2023-09-29T14:51:01.485Z,5.1
2023-09-29T14:52:09.460Z,4.7
2023-09-29T14:53:15.589Z,4.5
2023-09-29T14:54:20.882Z,4.9
2023-09-29T14:55:26.065Z,4.3
2023-09-29T14:56:31.553Z,4.6
2023-09-29T14:57:40.077Z,4.5
2023-09-29T14:58:44.952Z,4.4
2023-09-29T14:59:49.832Z,4
2023-09-29T15:00:54.890Z,4.4
2023-09-29T15:02:09.710Z,4.2
2023-09-29T15:03:15.056Z,4.3
2023-09-29T15:04:19.850Z,4
2023-09-29T15:05:25.783Z,3.9
2023-09-29T15:06:31.002Z,4.3
2023-09-29T15:07:44.409Z,3.7
2023-09-29T15:08:49.582Z,4.3
2023-09-29T15:09:54.527Z,4.5
2023-09-29T15:10:59.637Z,5.1
2023-09-29T15:12:04.571Z,4.5
2023-09-29T15:13:15.651Z,4.5
2023-09-29T15:14:20.520Z,5.2
2023-09-29T15:15:25.547Z,4.7
2023-09-29T15:16:30.392Z,4.7
2023-09-29T15:17:35.206Z,5.1
2023-09-29T15:18:40.166Z,4.5
2023-09-29T15:19:47.842Z,4.9
2023-09-29T15:20:52.837Z,4.8
2023-09-29T15:21:57.700Z,4.9